sensor_id;sensor_type;location;lat;lon;timestamp;pressure;altitude;pressure_sealevel;temperature;humidity
55934;BME280;41839;41.386;2.082;2023-04-08T00:01:37;99782.00;;;17.64;40.14
55934;BME280;41839;41.386;2.082;2023-04-08T00:04:02;99784.75;;;17.73;40.18
55934;BME280;41839;41.386;2.082;2023-04-08T00:06:28;99791.81;;;17.80;39.87
55934;BME280;41839;41.386;2.082;2023-04-08T00:08:54;99787.53;;;17.82;39.72
55934;BME280;41839;41.386;2.082;2023-04-08T00:11:19;99792.75;;;17.82;39.66
55934;BME280;41839;41.386;2.082;2023-04-08T00:13:45;99786.66;;;17.82;39.40
55934;BME280;41839;41.386;2.082;2023-04-08T00:16:10;99791.00;;;17.81;38.96
55934;BME280;41839;41.386;2.082;2023-04-08T00:18:36;99786.72;;;17.85;38.54
55934;BME280;41839;41.386;2.082;2023-04-08T00:21:03;99781.56;;;17.88;38.32
55934;BME280;41839;41.386;2.082;2023-04-08T00:23:28;99788.53;;;17.90;38.89
55934;BME280;41839;41.386;2.082;2023-04-08T00:25:54;99793.75;;;17.92;39.11
55934;BME280;41839;41.386;2.082;2023-04-08T00:28:19;99792.03;;;17.94;39.81
55934;BME280;41839;41.386;2.082;2023-04-08T00:30:45;99778.81;;;17.80;40.19
55934;BME280;41839;41.386;2.082;2023-04-08T00:33:11;99790.28;;;17.91;40.75
55934;BME280;41839;41.386;2.082;2023-04-08T00:35:37;99791.13;;;17.90;40.59
55934;BME280;41839;41.386;2.082;2023-04-08T00:38:02;99795.47;;;17.91;40.98
55934;BME280;41839;41.386;2.082;2023-04-08T00:40:28;99779.78;;;17.87;41.07
55934;BME280;41839;41.386;2.082;2023-04-08T00:42:56;99791.19;;;17.93;41.27
55934;BME280;41839;41.386;2.082;2023-04-08T00:45:22;99792.06;;;17.95;41.70
55934;BME280;41839;41.386;2.082;2023-04-08T00:47:47;99785.03;;;17.90;42.00
55934;BME280;41839;41.386;2.082;2023-04-08T00:50:17;99785.94;;;17.90;42.07
55934;BME280;41839;41.386;2.082;2023-04-08T00:52:42;99762.34;;;17.80;41.85
55934;BME280;41839;41.386;2.082;2023-04-08T00:55:08;99783.38;;;17.93;41.96
55934;BME280;41839;41.386;2.082;2023-04-08T00:57:34;99781.63;;;17.95;42.18
55934;BME280;41839;41.386;2.082;2023-04-08T00:59:59;99766.84;;;17.91;42.02
55934;BME280;41839;41.386;2.082;2023-04-08T01:02:30;99772.06;;;17.93;42.06
55934;BME280;41839;41.386;2.082;2023-04-08T01:05:13;99741.56;;;17.81;42.06
55934;BME280;41839;41.386;2.082;2023-04-08T01:07:48;99742.38;;;17.80;41.11
55934;BME280;41839;41.386;2.082;2023-04-08T01:10:28;99743.38;;;17.88;41.75
55934;BME280;41839;41.386;2.082;2023-04-08T01:12:57;99717.06;;;17.68;42.29
55934;BME280;41839;41.386;2.082;2023-04-08T01:15:25;99757.34;;;17.93;41.83
55934;BME280;41839;41.386;2.082;2023-04-08T01:17:55;99742.47;;;17.85;42.50
55934;BME280;41839;41.386;2.082;2023-04-08T01:20:23;99758.25;;;17.98;42.60
55934;BME280;41839;41.386;2.082;2023-04-08T01:23:12;99760.06;;;18.03;42.15
55934;BME280;41839;41.386;2.082;2023-04-08T01:25:51;99753.00;;;17.94;42.51
55934;BME280;41839;41.386;2.082;2023-04-08T01:28:18;99758.22;;;17.94;42.77
55934;BME280;41839;41.386;2.082;2023-04-08T01:30:46;99751.22;;;17.91;42.38
55934;BME280;41839;41.386;2.082;2023-04-08T01:33:14;99758.22;;;17.95;42.52
55934;BME280;41839;41.386;2.082;2023-04-08T01:35:41;99753.88;;;17.94;42.96
55934;BME280;41839;41.386;2.082;2023-04-08T01:38:09;99750.38;;;17.91;43.38
55934;BME280;41839;41.386;2.082;2023-04-08T01:40:37;99761.59;;;17.90;43.22
55934;BME280;41839;41.386;2.082;2023-04-08T01:43:06;99761.50;;;17.82;43.05
55934;BME280;41839;41.386;2.082;2023-04-08T01:45:32;99751.72;;;17.66;43.08
55934;BME280;41839;41.386;2.082;2023-04-08T01:47:59;99717.53;;;17.43;43.52
55934;BME280;41839;41.386;2.082;2023-04-08T01:50:25;99753.09;;;17.44;43.69
55934;BME280;41839;41.386;2.082;2023-04-08T01:52:52;99757.28;;;17.36;44.07
55934;BME280;41839;41.386;2.082;2023-04-08T01:55:19;99755.25;;;17.16;44.88
55934;BME280;41839;41.386;2.082;2023-04-08T01:57:48;99745.19;;;16.88;45.77
55934;BME280;41839;41.386;2.082;2023-04-08T02:00:19;99747.44;;;16.69;46.22
55934;BME280;41839;41.386;2.082;2023-04-08T02:02:46;99754.53;;;16.78;46.68
55934;BME280;41839;41.386;2.082;2023-04-08T02:05:12;99753.78;;;16.82;46.51
55934;BME280;41839;41.386;2.082;2023-04-08T02:07:38;99722.06;;;16.54;46.72
55934;BME280;41839;41.386;2.082;2023-04-08T02:10:04;99767.75;;;16.89;46.42
55934;BME280;41839;41.386;2.082;2023-04-08T02:12:30;99766.88;;;16.90;46.15
55934;BME280;41839;41.386;2.082;2023-04-08T02:14:57;99770.31;;;16.87;46.87
55934;BME280;41839;41.386;2.082;2023-04-08T02:17:34;99754.53;;;16.76;46.83
55934;BME280;41839;41.386;2.082;2023-04-08T02:20:09;99770.03;;;16.75;46.69
55934;BME280;41839;41.386;2.082;2023-04-08T02:22:59;99760.44;;;16.71;47.00
55934;BME280;41839;41.386;2.082;2023-04-08T02:25:29;99761.31;;;16.70;46.91
55934;BME280;41839;41.386;2.082;2023-04-08T02:27:55;99759.53;;;16.69;47.50
55934;BME280;41839;41.386;2.082;2023-04-08T02:30:24;99737.59;;;16.53;47.41
55934;BME280;41839;41.386;2.082;2023-04-08T02:32:53;99748.38;;;16.74;47.14
55934;BME280;41839;41.386;2.082;2023-04-08T02:35:19;99748.69;;;16.88;47.12
55934;BME280;41839;41.386;2.082;2023-04-08T02:37:45;99747.97;;;16.97;46.90
55934;BME280;41839;41.386;2.082;2023-04-08T02:40:26;99753.41;;;17.11;46.32
55934;BME280;41839;41.386;2.082;2023-04-08T02:42:52;99750.81;;;17.12;46.24
55934;BME280;41839;41.386;2.082;2023-04-08T02:45:18;99757.84;;;17.18;46.42
55934;BME280;41839;41.386;2.082;2023-04-08T02:47:44;99733.44;;;17.07;46.12
55934;BME280;41839;41.386;2.082;2023-04-08T02:50:09;99751.72;;;17.14;46.63
55934;BME280;41839;41.386;2.082;2023-04-08T02:52:35;99759.53;;;17.14;46.51
55934;BME280;41839;41.386;2.082;2023-04-08T02:55:01;99756.66;;;16.99;46.41
55934;BME280;41839;41.386;2.082;2023-04-08T02:57:26;99763.38;;;16.88;46.54
55934;BME280;41839;41.386;2.082;2023-04-08T02:59:52;99762.25;;;16.75;47.16
55934;BME280;41839;41.386;2.082;2023-04-08T03:02:17;99755.25;;;16.71;46.93
55934;BME280;41839;41.386;2.082;2023-04-08T03:04:43;99756.31;;;16.79;46.55
55934;BME280;41839;41.386;2.082;2023-04-08T03:07:08;99760.66;;;16.81;46.95
55934;BME280;41839;41.386;2.082;2023-04-08T03:09:33;99766.03;;;16.89;46.87
55934;BME280;41839;41.386;2.082;2023-04-08T03:11:58;99765.34;;;16.99;45.89
55934;BME280;41839;41.386;2.082;2023-04-08T03:14:24;99777.50;;;17.02;45.85
55934;BME280;41839;41.386;2.082;2023-04-08T03:16:49;99768.84;;;17.03;46.14
55934;BME280;41839;41.386;2.082;2023-04-08T03:19:15;99768.91;;;17.06;46.72
55934;BME280;41839;41.386;2.082;2023-04-08T03:21:40;99773.34;;;17.12;46.63
55934;BME280;41839;41.386;2.082;2023-04-08T03:24:05;99771.66;;;17.15;46.77
55934;BME280;41839;41.386;2.082;2023-04-08T03:26:31;99768.28;;;17.19;46.70
55934;BME280;41839;41.386;2.082;2023-04-08T03:28:56;99776.81;;;17.11;46.69
55934;BME280;41839;41.386;2.082;2023-04-08T03:31:21;99777.63;;;17.08;46.33
55934;BME280;41839;41.386;2.082;2023-04-08T03:33:47;99779.13;;;16.95;46.90
55934;BME280;41839;41.386;2.082;2023-04-08T03:36:12;99770.41;;;16.93;46.56
55934;BME280;41839;41.386;2.082;2023-04-08T03:38:37;99764.34;;;16.93;46.44
55934;BME280;41839;41.386;2.082;2023-04-08T03:41:03;99752.16;;;16.90;46.29
55934;BME280;41839;41.386;2.082;2023-04-08T03:43:28;99750.38;;;16.88;46.57
55934;BME280;41839;41.386;2.082;2023-04-08T03:45:54;99754.66;;;16.84;46.57
55934;BME280;41839;41.386;2.082;2023-04-08T03:48:20;99766.03;;;16.91;45.56
55934;BME280;41839;41.386;2.082;2023-04-08T03:50:45;99763.53;;;16.97;45.40
55934;BME280;41839;41.386;2.082;2023-04-08T03:53:11;99767.09;;;17.00;45.41
55934;BME280;41839;41.386;2.082;2023-04-08T03:55:37;99772.31;;;17.00;45.33
55934;BME280;41839;41.386;2.082;2023-04-08T03:58:03;99768.78;;;16.98;44.66
55934;BME280;41839;41.386;2.082;2023-04-08T04:00:29;99773.00;;;16.93;44.58
55934;BME280;41839;41.386;2.082;2023-04-08T04:02:54;99764.41;;;16.94;45.26
55934;BME280;41839;41.386;2.082;2023-04-08T04:05:20;99763.47;;;16.92;44.92
55934;BME280;41839;41.386;2.082;2023-04-08T04:07:46;99763.47;;;16.92;45.29
55934;BME280;41839;41.386;2.082;2023-04-08T04:10:11;99769.53;;;16.91;45.15
55934;BME280;41839;41.386;2.082;2023-04-08T04:12:37;99765.22;;;16.92;45.38
55934;BME280;41839;41.386;2.082;2023-04-08T04:15:03;99764.34;;;16.91;45.07
55934;BME280;41839;41.386;2.082;2023-04-08T04:17:28;99761.75;;;16.91;44.92
55934;BME280;41839;41.386;2.082;2023-04-08T04:19:54;99767.00;;;16.96;45.23
55934;BME280;41839;41.386;2.082;2023-04-08T04:22:19;99762.59;;;16.92;45.04
55934;BME280;41839;41.386;2.082;2023-04-08T04:24:48;99760.13;;;16.99;44.71
55934;BME280;41839;41.386;2.082;2023-04-08T04:27:14;99765.38;;;17.01;43.97
55934;BME280;41839;41.386;2.082;2023-04-08T04:29:41;99772.25;;;16.99;44.15
55934;BME280;41839;41.386;2.082;2023-04-08T04:32:07;99726.00;;;16.79;43.14
55934;BME280;41839;41.386;2.082;2023-04-08T04:34:33;99737.41;;;16.88;43.19
55934;BME280;41839;41.386;2.082;2023-04-08T04:36:58;99765.44;;;17.04;42.74
55934;BME280;41839;41.386;2.082;2023-04-08T04:39:24;99770.50;;;16.98;43.16
55934;BME280;41839;41.386;2.082;2023-04-08T04:41:49;99777.34;;;16.93;43.27
55934;BME280;41839;41.386;2.082;2023-04-08T04:44:15;99773.81;;;16.91;43.17
55934;BME280;41839;41.386;2.082;2023-04-08T04:46:41;99772.13;;;16.91;43.79
55934;BME280;41839;41.386;2.082;2023-04-08T04:49:06;99742.31;;;16.74;43.21
55934;BME280;41839;41.386;2.082;2023-04-08T04:51:32;99774.56;;;16.83;43.44
55934;BME280;41839;41.386;2.082;2023-04-08T04:53:57;99774.50;;;16.79;43.72
55934;BME280;41839;41.386;2.082;2023-04-08T04:56:23;99775.31;;;16.76;43.79
55934;BME280;41839;41.386;2.082;2023-04-08T04:58:50;99771.84;;;16.76;43.85
55934;BME280;41839;41.386;2.082;2023-04-08T05:01:16;99770.78;;;16.68;44.06
55934;BME280;41839;41.386;2.082;2023-04-08T05:03:41;99780.38;;;16.72;43.90
55934;BME280;41839;41.386;2.082;2023-04-08T05:06:07;99776.88;;;16.70;44.60
55934;BME280;41839;41.386;2.082;2023-04-08T05:08:32;99786.38;;;16.68;43.52
55934;BME280;41839;41.386;2.082;2023-04-08T05:10:58;99783.63;;;16.62;44.06
55934;BME280;41839;41.386;2.082;2023-04-08T05:13:27;99758.03;;;16.36;44.34
55934;BME280;41839;41.386;2.082;2023-04-08T05:15:52;99778.00;;;16.39;45.04
55934;BME280;41839;41.386;2.082;2023-04-08T05:18:18;99792.84;;;16.46;45.60
55934;BME280;41839;41.386;2.082;2023-04-08T05:20:44;99795.13;;;16.32;45.53
55934;BME280;41839;41.386;2.082;2023-04-08T05:23:10;99800.13;;;16.23;45.97
55934;BME280;41839;41.386;2.082;2023-04-08T05:25:35;99789.66;;;16.17;46.48
55934;BME280;41839;41.386;2.082;2023-04-08T05:28:01;99790.47;;;16.16;46.29
55934;BME280;41839;41.386;2.082;2023-04-08T05:30:26;99799.97;;;16.13;46.80
55934;BME280;41839;41.386;2.082;2023-04-08T05:32:52;99799.25;;;16.22;46.88
55934;BME280;41839;41.386;2.082;2023-04-08T05:35:17;99802.97;;;16.33;45.62
55934;BME280;41839;41.386;2.082;2023-04-08T05:37:43;99814.34;;;16.39;46.02
55934;BME280;41839;41.386;2.082;2023-04-08T05:40:08;99807.50;;;16.44;45.50
55934;BME280;41839;41.386;2.082;2023-04-08T05:42:34;99812.88;;;16.51;45.36
55934;BME280;41839;41.386;2.082;2023-04-08T05:44:59;99785.72;;;16.35;45.39
55934;BME280;41839;41.386;2.082;2023-04-08T05:47:25;99803.44;;;16.55;44.96
55934;BME280;41839;41.386;2.082;2023-04-08T05:49:50;99806.03;;;16.55;44.97
55934;BME280;41839;41.386;2.082;2023-04-08T05:52:16;99813.13;;;16.65;44.66
55934;BME280;41839;41.386;2.082;2023-04-08T05:54:42;99820.97;;;16.67;44.87
55934;BME280;41839;41.386;2.082;2023-04-08T05:57:08;99818.41;;;16.68;45.14
55934;BME280;41839;41.386;2.082;2023-04-08T05:59:33;99817.53;;;16.68;45.82
55934;BME280;41839;41.386;2.082;2023-04-08T06:01:59;99817.66;;;16.74;45.34
55934;BME280;41839;41.386;2.082;2023-04-08T06:04:24;99825.59;;;16.80;45.26
55934;BME280;41839;41.386;2.082;2023-04-08T06:06:50;99818.72;;;16.82;45.12
55934;BME280;41839;41.386;2.082;2023-04-08T06:09:15;99826.66;;;16.90;45.12
55934;BME280;41839;41.386;2.082;2023-04-08T06:11:41;99827.50;;;16.90;45.00
55934;BME280;41839;41.386;2.082;2023-04-08T06:14:06;99833.66;;;16.94;44.96
55934;BME280;41839;41.386;2.082;2023-04-08T06:16:31;99829.28;;;16.91;45.09
55934;BME280;41839;41.386;2.082;2023-04-08T06:18:57;99834.53;;;16.94;45.32
55934;BME280;41839;41.386;2.082;2023-04-08T06:21:23;99833.75;;;16.98;44.90
55934;BME280;41839;41.386;2.082;2023-04-08T06:23:49;99835.44;;;16.96;45.03
55934;BME280;41839;41.386;2.082;2023-04-08T06:26:14;99818.78;;;16.87;44.92
55934;BME280;41839;41.386;2.082;2023-04-08T06:28:40;99832.88;;;16.98;44.90
55934;BME280;41839;41.386;2.082;2023-04-08T06:31:05;99833.69;;;16.95;44.73
55934;BME280;41839;41.386;2.082;2023-04-08T06:33:31;99750.44;;;16.45;44.57
55934;BME280;41839;41.386;2.082;2023-04-08T06:36:06;99843.97;;;16.89;45.34
55934;BME280;41839;41.386;2.082;2023-04-08T06:38:32;99845.63;;;16.86;44.81
55934;BME280;41839;41.386;2.082;2023-04-08T06:41:07;99843.03;;;16.86;45.42
55934;BME280;41839;41.386;2.082;2023-04-08T06:43:33;99854.81;;;16.71;45.42
55934;BME280;41839;41.386;2.082;2023-04-08T06:45:59;99861.63;;;16.65;44.62
55934;BME280;41839;41.386;2.082;2023-04-08T06:48:25;99818.69;;;16.41;44.54
55934;BME280;41839;41.386;2.082;2023-04-08T06:50:56;99863.47;;;16.70;44.22
55934;BME280;41839;41.386;2.082;2023-04-08T06:53:23;99874.72;;;16.69;44.46
55934;BME280;41839;41.386;2.082;2023-04-08T06:55:49;99864.22;;;16.65;44.27
55934;BME280;41839;41.386;2.082;2023-04-08T06:58:14;99872.88;;;16.65;44.07
55934;BME280;41839;41.386;2.082;2023-04-08T07:00:41;99873.16;;;16.77;43.70
55934;BME280;41839;41.386;2.082;2023-04-08T07:03:06;99868.38;;;16.97;43.63
55934;BME280;41839;41.386;2.082;2023-04-08T07:05:34;99870.31;;;17.09;43.48
55934;BME280;41839;41.386;2.082;2023-04-08T07:08:01;99870.72;;;17.31;43.56
55934;BME280;41839;41.386;2.082;2023-04-08T07:10:26;99868.13;;;17.29;43.77
55934;BME280;41839;41.386;2.082;2023-04-08T07:12:53;99826.00;;;17.01;43.04
55934;BME280;41839;41.386;2.082;2023-04-08T07:15:18;99879.44;;;17.34;43.25
55934;BME280;41839;41.386;2.082;2023-04-08T07:17:44;99874.31;;;17.37;39.61
55934;BME280;41839;41.386;2.082;2023-04-08T07:20:09;99853.63;;;17.43;34.84
55934;BME280;41839;41.386;2.082;2023-04-08T07:22:36;99871.88;;;17.46;40.79
55934;BME280;41839;41.386;2.082;2023-04-08T07:25:01;99833.94;;;17.56;36.90
55934;BME280;41839;41.386;2.082;2023-04-08T07:27:27;99880.13;;;18.24;33.87
55934;BME280;41839;41.386;2.082;2023-04-08T07:29:53;99870.84;;;18.43;31.14
55934;BME280;41839;41.386;2.082;2023-04-08T07:32:19;99873.03;;;18.75;30.65
55934;BME280;41839;41.386;2.082;2023-04-08T07:34:45;99878.03;;;19.32;30.42
55934;BME280;41839;41.386;2.082;2023-04-08T07:37:10;99888.75;;;19.62;28.59
55934;BME280;41839;41.386;2.082;2023-04-08T07:39:36;99885.50;;;19.86;31.57
55934;BME280;41839;41.386;2.082;2023-04-08T07:42:01;99890.09;;;20.22;28.01
55934;BME280;41839;41.386;2.082;2023-04-08T07:44:26;99871.06;;;20.40;28.26
55934;BME280;41839;41.386;2.082;2023-04-08T07:46:52;99880.91;;;20.85;27.95
55934;BME280;41839;41.386;2.082;2023-04-08T07:49:17;99868.75;;;20.98;25.95
55934;BME280;41839;41.386;2.082;2023-04-08T07:51:43;99846.09;;;20.99;28.79
55934;BME280;41839;41.386;2.082;2023-04-08T07:54:08;99867.88;;;20.98;25.91
55934;BME280;41839;41.386;2.082;2023-04-08T07:56:41;99870.56;;;21.30;26.18
55934;BME280;41839;41.386;2.082;2023-04-08T07:59:08;99885.50;;;21.63;24.55
55934;BME280;41839;41.386;2.082;2023-04-08T08:01:34;99879.38;;;21.85;24.23
55934;BME280;41839;41.386;2.082;2023-04-08T08:04:02;99882.00;;;22.07;24.39
55934;BME280;41839;41.386;2.082;2023-04-08T08:06:28;99850.59;;;21.70;26.64
55934;BME280;41839;41.386;2.082;2023-04-08T08:08:53;99868.06;;;21.77;23.81
55934;BME280;41839;41.386;2.082;2023-04-08T08:11:19;99889.00;;;22.00;23.90
55934;BME280;41839;41.386;2.082;2023-04-08T08:13:45;99893.34;;;21.83;23.65
55934;BME280;41839;41.386;2.082;2023-04-08T08:16:11;99898.59;;;21.84;24.17
55934;BME280;41839;41.386;2.082;2023-04-08T08:18:37;99879.41;;;21.75;24.06
55934;BME280;41839;41.386;2.082;2023-04-08T08:21:04;99905.59;;;21.99;24.02
55934;BME280;41839;41.386;2.082;2023-04-08T08:23:30;99903.84;;;22.06;23.81
55934;BME280;41839;41.386;2.082;2023-04-08T08:26:06;99900.34;;;21.87;24.42
55934;BME280;41839;41.386;2.082;2023-04-08T08:28:33;99897.72;;;21.66;24.22
55934;BME280;41839;41.386;2.082;2023-04-08T08:30:59;99903.81;;;21.74;24.48
55934;BME280;41839;41.386;2.082;2023-04-08T08:33:24;99902.09;;;21.86;24.67
55934;BME280;41839;41.386;2.082;2023-04-08T08:35:50;99899.44;;;21.99;24.28
55934;BME280;41839;41.386;2.082;2023-04-08T08:38:16;99887.25;;;22.01;25.80
55934;BME280;41839;41.386;2.082;2023-04-08T08:40:42;99898.59;;;22.00;24.98
55934;BME280;41839;41.386;2.082;2023-04-08T08:43:09;99896.84;;;22.09;25.08
55934;BME280;41839;41.386;2.082;2023-04-08T08:45:41;99907.31;;;21.85;25.01
55934;BME280;41839;41.386;2.082;2023-04-08T08:48:07;99886.34;;;21.47;25.63
55934;BME280;41839;41.386;2.082;2023-04-08T08:50:33;99913.44;;;21.62;26.13
55934;BME280;41839;41.386;2.082;2023-04-08T08:52:59;99885.47;;;21.51;27.12
55934;BME280;41839;41.386;2.082;2023-04-08T08:55:25;99888.94;;;21.39;27.40
55934;BME280;41839;41.386;2.082;2023-04-08T08:57:51;99905.53;;;21.47;27.23
55934;BME280;41839;41.386;2.082;2023-04-08T09:00:16;99922.13;;;21.61;27.60
55934;BME280;41839;41.386;2.082;2023-04-08T09:02:42;99911.66;;;21.57;27.49
55934;BME280;41839;41.386;2.082;2023-04-08T09:05:08;99924.75;;;21.58;29.00
55934;BME280;41839;41.386;2.082;2023-04-08T09:07:35;99893.31;;;21.46;27.92
55934;BME280;41839;41.386;2.082;2023-04-08T09:10:01;99931.72;;;21.52;28.30
55934;BME280;41839;41.386;2.082;2023-04-08T09:12:27;99930.84;;;21.51;29.11
55934;BME280;41839;41.386;2.082;2023-04-08T09:15:08;99891.47;;;21.16;31.12
55934;BME280;41839;41.386;2.082;2023-04-08T09:17:40;99929.91;;;21.34;28.81
55934;BME280;41839;41.386;2.082;2023-04-08T09:20:10;99933.44;;;21.40;29.67
55934;BME280;41839;41.386;2.082;2023-04-08T09:23:02;99942.03;;;21.18;29.84
55934;BME280;41839;41.386;2.082;2023-04-08T09:25:29;99914.97;;;21.01;30.71
55934;BME280;41839;41.386;2.082;2023-04-08T09:27:57;99921.00;;;20.81;31.56
55934;BME280;41839;41.386;2.082;2023-04-08T09:30:26;99947.16;;;20.84;31.24
55934;BME280;41839;41.386;2.082;2023-04-08T09:32:54;99944.59;;;20.93;31.19
55934;BME280;41839;41.386;2.082;2023-04-08T09:36:50;99942.03;;;21.15;32.04
55934;BME280;41839;41.386;2.082;2023-04-08T09:39:16;99944.69;;;21.21;32.61
55934;BME280;41839;41.386;2.082;2023-04-08T09:41:43;99947.38;;;21.42;31.35
55934;BME280;41839;41.386;2.082;2023-04-08T09:44:10;99942.97;;;21.29;30.99
55934;BME280;41839;41.386;2.082;2023-04-08T09:51:52;99932.63;;;22.07;30.06
55934;BME280;41839;41.386;2.082;2023-04-08T09:54:22;99933.53;;;22.23;29.48
55934;BME280;41839;41.386;2.082;2023-04-08T09:57:04;99944.03;;;22.34;29.76
55934;BME280;41839;41.386;2.082;2023-04-08T09:59:30;99935.28;;;22.37;29.45
55934;BME280;41839;41.386;2.082;2023-04-08T10:02:00;99945.75;;;22.55;29.53
55934;BME280;41839;41.386;2.082;2023-04-08T10:04:31;99940.47;;;22.61;29.41
55934;BME280;41839;41.386;2.082;2023-04-08T10:07:03;99930.88;;;22.52;29.13
55934;BME280;41839;41.386;2.082;2023-04-08T10:09:30;99946.53;;;22.75;29.51
55934;BME280;41839;41.386;2.082;2023-04-08T10:11:57;99948.28;;;22.78;29.45
55934;BME280;41839;41.386;2.082;2023-04-08T10:14:22;99927.31;;;22.79;30.00
55934;BME280;41839;41.386;2.082;2023-04-08T10:17:23;99950.00;;;23.00;29.66
55934;BME280;41839;41.386;2.082;2023-04-08T10:19:49;99929.00;;;23.05;29.92
55934;BME280;41839;41.386;2.082;2023-04-08T10:27:43;99943.50;;;23.72;31.47
55934;BME280;41839;41.386;2.082;2023-04-08T10:35:41;99955.78;;;23.72;30.51
55934;BME280;41839;41.386;2.082;2023-04-08T10:38:07;99959.25;;;23.80;31.25
55934;BME280;41839;41.386;2.082;2023-04-08T10:40:37;99962.63;;;23.96;31.20
55934;BME280;41839;41.386;2.082;2023-04-08T10:43:10;99963.47;;;24.01;31.17
55934;BME280;41839;41.386;2.082;2023-04-08T10:45:37;99959.06;;;24.00;31.03
55934;BME280;41839;41.386;2.082;2023-04-08T10:50:37;99961.38;;;24.39;30.48
55934;BME280;41839;41.386;2.082;2023-04-08T10:53:04;99966.59;;;24.47;30.93
55934;BME280;41839;41.386;2.082;2023-04-08T10:55:29;99949.41;;;24.06;31.76
55934;BME280;41839;41.386;2.082;2023-04-08T10:58:04;99948.09;;;24.56;30.88
55934;BME280;41839;41.386;2.082;2023-04-08T11:00:38;99954.16;;;24.61;30.06
55934;BME280;41839;41.386;2.082;2023-04-08T11:03:08;99948.84;;;24.69;31.41
55934;BME280;41839;41.386;2.082;2023-04-08T11:05:34;99951.44;;;24.71;31.10
55934;BME280;41839;41.386;2.082;2023-04-08T11:08:01;99945.31;;;24.72;30.98
55934;BME280;41839;41.386;2.082;2023-04-08T11:10:27;99958.22;;;24.93;30.81
55934;BME280;41839;41.386;2.082;2023-04-08T11:12:54;99954.56;;;25.06;31.00
55934;BME280;41839;41.386;2.082;2023-04-08T11:15:20;99922.75;;;25.23;30.01
55934;BME280;41839;41.386;2.082;2023-04-08T11:17:47;99944.84;;;25.13;30.83
55934;BME280;41839;41.386;2.082;2023-04-08T11:20:13;99930.66;;;25.23;30.61
55934;BME280;41839;41.386;2.082;2023-04-08T11:22:38;99945.31;;;25.46;30.23
55934;BME280;41839;41.386;2.082;2023-04-08T11:25:05;99943.19;;;25.71;30.18
55934;BME280;41839;41.386;2.082;2023-04-08T11:27:33;99943.84;;;25.87;29.42
55934;BME280;41839;41.386;2.082;2023-04-08T11:30:00;99940.00;;;25.47;29.68
55934;BME280;41839;41.386;2.082;2023-04-08T11:32:26;99933.56;;;25.00;30.58
55934;BME280;41839;41.386;2.082;2023-04-08T11:34:53;99939.47;;;24.39;31.09
55934;BME280;41839;41.386;2.082;2023-04-08T11:37:19;99937.06;;;24.14;31.74
55934;BME280;41839;41.386;2.082;2023-04-08T11:39:45;99926.91;;;23.65;32.75
55934;BME280;41839;41.386;2.082;2023-04-08T11:42:37;99937.28;;;23.88;33.34
55934;BME280;41839;41.386;2.082;2023-04-08T11:45:11;99936.50;;;23.79;32.82
55934;BME280;41839;41.386;2.082;2023-04-08T11:47:37;99914.81;;;23.40;32.91
55934;BME280;41839;41.386;2.082;2023-04-08T11:50:03;99919.22;;;23.35;33.20
55934;BME280;41839;41.386;2.082;2023-04-08T11:52:47;99941.97;;;23.36;34.67
55934;BME280;41839;41.386;2.082;2023-04-08T11:55:24;99941.03;;;23.47;33.49
55934;BME280;41839;41.386;2.082;2023-04-08T11:57:51;99935.88;;;23.28;34.13
55934;BME280;41839;41.386;2.082;2023-04-08T12:00:17;99923.84;;;22.65;34.09
55934;BME280;41839;41.386;2.082;2023-04-08T12:02:43;99926.44;;;22.70;34.82
55934;BME280;41839;41.386;2.082;2023-04-08T12:05:09;99936.13;;;22.52;35.27
55934;BME280;41839;41.386;2.082;2023-04-08T12:07:35;99890.75;;;22.27;34.87
55934;BME280;41839;41.386;2.082;2023-04-08T12:10:00;99922.09;;;22.70;34.29
55934;BME280;41839;41.386;2.082;2023-04-08T12:12:26;99930.88;;;22.45;35.59
55934;BME280;41839;41.386;2.082;2023-04-08T12:14:51;99922.16;;;22.43;34.63
55934;BME280;41839;41.386;2.082;2023-04-08T12:17:17;99925.66;;;22.40;35.47
55934;BME280;41839;41.386;2.082;2023-04-08T12:19:42;99929.16;;;22.35;35.55
55934;BME280;41839;41.386;2.082;2023-04-08T12:22:08;99926.56;;;22.33;36.24
55934;BME280;41839;41.386;2.082;2023-04-08T12:24:33;99925.66;;;22.37;36.65
55934;BME280;41839;41.386;2.082;2023-04-08T12:26:59;99924.81;;;22.17;35.10
55934;BME280;41839;41.386;2.082;2023-04-08T12:29:26;99909.06;;;21.75;35.98
55934;BME280;41839;41.386;2.082;2023-04-08T12:31:51;99924.78;;;21.98;35.11
55934;BME280;41839;41.386;2.082;2023-04-08T12:34:17;99919.56;;;21.94;34.79
55934;BME280;41839;41.386;2.082;2023-04-08T12:36:42;99918.69;;;22.08;35.33
55934;BME280;41839;41.386;2.082;2023-04-08T12:39:08;99917.81;;;21.74;34.15
55934;BME280;41839;41.386;2.082;2023-04-08T12:41:34;99879.38;;;21.79;35.17
55934;BME280;41839;41.386;2.082;2023-04-08T12:43:59;99913.44;;;22.01;35.48
55934;BME280;41839;41.386;2.082;2023-04-08T12:46:25;99915.16;;;22.05;35.68
55934;BME280;41839;41.386;2.082;2023-04-08T12:48:50;99914.31;;;21.87;35.02
55934;BME280;41839;41.386;2.082;2023-04-08T12:51:16;99897.72;;;21.79;35.33
55934;BME280;41839;41.386;2.082;2023-04-08T12:53:42;99907.31;;;22.00;35.11
55934;BME280;41839;41.386;2.082;2023-04-08T12:56:07;99917.81;;;21.90;35.50
55934;BME280;41839;41.386;2.082;2023-04-08T12:58:33;99905.59;;;21.84;35.79
55934;BME280;41839;41.386;2.082;2023-04-08T13:00:58;99914.28;;;21.74;35.45
55934;BME280;41839;41.386;2.082;2023-04-08T13:03:24;99924.75;;;21.80;35.25
55934;BME280;41839;41.386;2.082;2023-04-08T13:05:51;99924.78;;;21.92;36.70
55934;BME280;41839;41.386;2.082;2023-04-08T13:08:16;99921.25;;;21.44;36.72
55934;BME280;41839;41.386;2.082;2023-04-08T13:10:42;99904.66;;;21.44;36.27
55934;BME280;41839;41.386;2.082;2023-04-08T13:13:07;99911.63;;;21.38;34.19
55934;BME280;41839;41.386;2.082;2023-04-08T13:15:33;99915.16;;;21.54;35.86
55934;BME280;41839;41.386;2.082;2023-04-08T13:17:58;99909.81;;;21.24;35.69
55934;BME280;41839;41.386;2.082;2023-04-08T13:20:24;99922.09;;;21.38;37.73